AirNav   Pilot Hours Calculator
 
 884 users online  

IL46 Brooks Ranch Airport
Burnside, Illinois, USA

GOING TO BURNSIDE?


FAA INFORMATION EFFECTIVE 01 DECEMBER 2022

Location

FAA Identifier: IL46
Lat/Long: 40-28-00.1550N 091-02-00.5020W
40-28.002583N 091-02.008367W
40.4667097,-91.0334728
(estimated)
Elevation: 700 ft. / 213 m (estimated)
Variation: 02E (1985)
From city: 3 miles SE of BURNSIDE, IL
Time zone: UTC -6 (UTC -5 during Daylight Saving Time)
Zip code: 62321

Airport Operations

Airport use: Private use. Permission required prior to landing
Activation date: 06/1972
Control tower: no
ARTCC: CHICAGO CENTER
FSS: SAINT LOUIS FLIGHT SERVICE STATION
Attendance: UNATNDD
Wind indicator: no
Segmented circle: no

Airport Communications

WX AWOS-3 at MQB (18 nm E): 119.025 (309-837-4022)
WX AWOS-3 at FSW (18 nm NW): 120.925 (319-372-5147)
WX AWOS-3 at EOK (18 nm W): 118.375 (319-524-7884)
WX ASOS at BRL (19 nm N): 118.025 (319-752-6246)

Nearby radio navigation aids

VOR radial/distance  VOR name  Freq  Var
BRLr193/16.2BURLINGTON VOR/DME111.4005E
UINr012/38.8QUINCY VORTAC113.6005E

 
NDB name  Hdg/Dist  Freq  Var  ID
BURNS159/12.039001EBR -... .-.
KEOKUK088/18.336602EEOK . --- -.-
MACOMB261/21.825101EJZY .--- --.. -.--

Airport Services

Airframe service: NONE
Powerplant service: NONE

Runway Information

Runway N/S

Dimensions: 1800 x 100 ft. / 549 x 30 m
Surface: turf
RUNWAY N  RUNWAY S
Traffic pattern: leftleft
Obstructions: plinenone

Airport Ownership and Management from official FAA records

Ownership: Privately-owned
Owner: BERNADETTE BROOKS
2396 E. COUNTY RD 1800 N
CARTHAGE, IL 62321
Phone 217-357-2541

Additional Remarks

FOR CD CTC CHICAGO ARTCC AT 630-906-8921.

Instrument Procedures

There are no published instrument procedures at IL46.

Some nearby airports with instrument procedures:

KMQB - Macomb Municipal Airport (18 nm E)
KFSW - Fort Madison Municipal Airport (18 nm NW)
KEOK - Keokuk Municipal Airport (18 nm W)
KBRL - Southeast Iowa Regional Airport (19 nm N)
I63 - Mount Sterling Municipal Airport (31 nm S)
 
Loc | Ops | Rwys | IFR | FBO | Links
Com | Nav | Svcs | Stats | Notes
Area around IL46 (Brooks Ranch Airport)
 
Road maps at: MapQuest Bing Google
 
Aerial photo
No photo
 
Sectional chart

 
Airport distance calculator
Flying to Brooks Ranch Airport? Find the distance to fly.

From to IL46

Sunrise and sunset
Times for 07-Dec-2022
 Local
(UTC-6)
 Zulu
(UTC)
Morning civil twilight06:4412:44
Sunrise07:1513:15
Sunset16:3622:36
Evening civil twilight17:0723:07

Current date and time
Zulu (UTC)  07-Dec-2022 12:58:26
Local (UTC-6)  07-Dec-2022 06:58:26
 
METAR
KEOK 
17nm W 
071235Z AUTO 00000KT 1 1/2SM BR SCT014 SCT020 BKN026 M00/M00 A3018 RMK A01
KFSW 
18nm NW 
071235Z AUTO 00000KT M1/4SM FZFG M02/M02 A3017 RMK AO2
KMQB 
18nm E 
071235Z AUTO 10004KT 1SM BR OVC002 00/00 A3021 RMK AO2 T00001001
KBRL 
19nm N 
071253Z AUTO 00000KT 1/4SM FZFG VV001 M02/M03 A3019 RMK AO2 SLP229 I1000 T10221028
KI63 
31nm S 
071235Z AUTO 00000KT 7SM OVC032 04/04 A3018 RMK AO2 T00430040
KUIN 
32nm S 
071254Z AUTO 00000KT 5SM BR OVC032 05/04 A3020 RMK AO2 SLP229 T00500039
TAF
KBRL 
19nm N 
071134Z 0712/0812 VRB03KT 1/4SM FG VV001 TEMPO 0714/0716 1SM BR OVC003 FM071600 VRB04KT P6SM SCT040 FM080000 02005KT P6SM SCT250
NOTAMs
Click for the latest NOTAMs
NOTAMs are issued by the DoD/FAA and will open in a separate window not controlled by AirNav.

 

 
 

Would you like to see your business listed on this page?

 If your business provides an interesting product or service to pilots, flight crews, aircraft, or users of the Brooks Ranch Airport, you should consider listing it here.  To start the listing process, click on the button below
 
Add a business
 

Other Pages about Brooks Ranch Airport

Update a link
 
Copyright © AirNav, LLC. All rights reserved. Privacy Policy  Contact